CheckWX is a tool to help pilots better visualize weather data.  It is not intended as a substitute for an official pre-flight weather briefing.

13:52:11 UTC

KJVW METAR
John Bell Williams Airport
Raymond, Mississippi, USA
Current

17 mins ago

KJVW 211335Z AUTO 10003KT 10SM CLR 23/21 A3021 RMK AO2
Observed
Sep-21 @ 13:35 UTC
Wind
  • 100° at 3 KTS
Visibility
10 SM
Flight Rules
VFR
Cloud Levels
  • Clear skies
Temperature
23°C / 73°F
Dewpoint
21°C / 70°F
Humidity
89%
Altimeter
30.21" Hg
Pressure
1023.02 hPa
Previous

37 mins ago

KJVW 211315Z AUTO 12003KT 10SM CLR 22/21 A3020 RMK AO2
Observed
Sep-21 @ 13:15 UTC
Wind
  • 120° at 3 KTS
Visibility
10 SM
Flight Rules
VFR
Cloud Levels
  • Clear skies
Temperature
22°C / 72°F
Dewpoint
21°C / 70°F
Humidity
94%
Altimeter
30.2" Hg
Pressure
1022.72 hPa
Previous

57 mins ago

KJVW 211255Z AUTO 00000KT 10SM CLR 20/20 A3019 RMK AO2
Observed
Sep-21 @ 12:55 UTC
Visibility
10 SM
Flight Rules
VFR
Cloud Levels
  • Clear skies
Temperature
20°C / 68°F
Dewpoint
20°C / 68°F
Humidity
100%
Altimeter
30.19" Hg
Pressure
1022.32 hPa